Time;durP1;ratioP1;P1;durP2;ratioP2;P2;SDS_P1;SDS_P2;PMS_P1;PMS_P2;Temp;Humidity;BMP_temperature;BMP_pressure;BME280_temperature;BME280_humidity;BME280_pressure;Samples;Min_cycle;Max_cycle;Signal;HPM_P1;HPM_P2
2023/04/06 00:01:36;;;;;;;10.10;4.38;;;4.10;55.00;;;;;;5055017;28;20037;-66
2023/04/06 00:04:01;;;;;;;12.38;4.50;;;4.10;55.30;;;;;;5054412;28;20048;-67
2023/04/06 00:06:27;;;;;;;8.85;4.38;;;4.00;55.60;;;;;;5055057;28;20021;-66
2023/04/06 00:08:53;;;;;;;7.00;4.45;;;4.00;55.60;;;;;;5055004;28;20029;-66
2023/04/06 00:11:18;;;;;;;8.48;4.47;;;4.00;55.90;;;;;;5054563;28;20025;-66
2023/04/06 00:13:45;;;;;;;6.85;4.43;;;4.00;55.80;;;;;;5054879;28;20032;-66
2023/04/06 00:16:10;;;;;;;9.98;5.03;;;3.90;55.80;;;;;;5054204;28;20056;-66
2023/04/06 00:18:36;;;;;;;9.38;4.53;;;3.90;55.90;;;;;;5054211;28;20053;-66
2023/04/06 00:21:03;;;;;;;9.55;4.00;;;3.90;56.10;;;;;;5054398;28;20468;-66
2023/04/06 00:23:28;;;;;;;10.65;4.93;;;3.90;56.20;;;;;;5054449;28;20485;-67
2023/04/06 00:25:55;;;;;;;12.52;4.88;;;3.90;56.20;;;;;;5054975;28;20091;-67
2023/04/06 00:28:25;;;;;;;8.32;4.97;;;3.80;56.30;;;;;;5054195;28;20379;-67
2023/04/06 00:30:55;;;;;;;8.15;4.90;;;3.80;56.50;;;;;;5054759;28;20523;-67
2023/04/06 00:33:20;;;;;;;10.35;4.97;;;3.70;56.60;;;;;;5054238;28;20032;-66
2023/04/06 00:35:46;;;;;;;12.75;5.32;;;3.70;56.70;;;;;;5054535;28;20021;-66
2023/04/06 00:38:12;;;;;;;7.15;4.07;;;3.70;56.90;;;;;;5054072;28;20021;-67
2023/04/06 00:40:39;;;;;;;7.90;4.80;;;3.60;57.00;;;;;;5054203;28;20033;-66
2023/04/06 00:43:05;;;;;;;9.85;4.90;;;3.60;57.20;;;;;;5053719;28;20037;-67
2023/04/06 00:45:31;;;;;;;7.53;4.75;;;3.60;57.50;;;;;;5054317;28;20029;-66
2023/04/06 00:47:57;;;;;;;8.80;5.00;;;3.50;57.50;;;;;;5054306;28;20024;-66
2023/04/06 00:50:23;;;;;;;9.43;5.20;;;3.50;57.60;;;;;;5053920;28;20428;-66
2023/04/06 00:52:49;;;;;;;7.68;4.80;;;3.50;57.80;;;;;;5054193;28;20434;-67
2023/04/06 00:55:15;;;;;;;9.32;4.68;;;3.40;57.70;;;;;;5053769;28;20021;-66
2023/04/06 00:57:40;;;;;;;8.95;4.82;;;3.40;57.80;;;;;;5055178;28;20082;-66
2023/04/06 01:00:06;;;;;;;9.35;4.63;;;3.40;57.90;;;;;;5055224;28;20060;-65
2023/04/06 01:02:32;;;;;;;8.20;4.13;;;3.30;58.10;;;;;;5054147;28;20040;-65
2023/04/06 01:04:58;;;;;;;10.07;5.22;;;3.30;58.20;;;;;;5053952;28;20033;-65
2023/04/06 01:07:24;;;;;;;7.07;4.18;;;3.20;58.30;;;;;;5053433;28;20025;-66
2023/04/06 01:09:50;;;;;;;8.13;4.43;;;3.20;58.40;;;;;;5054029;28;20043;-65
2023/04/06 01:12:16;;;;;;;9.80;4.32;;;3.20;58.50;;;;;;5053540;28;20492;-66
2023/04/06 01:14:41;;;;;;;12.35;4.82;;;3.20;58.50;;;;;;5053791;28;20064;-67
2023/04/06 01:17:07;;;;;;;11.07;4.60;;;3.20;58.50;;;;;;5053323;28;20049;-65
2023/04/06 01:19:33;;;;;;;8.88;4.15;;;3.10;58.70;;;;;;5053552;28;20056;-66
2023/04/06 01:21:58;;;;;;;9.48;4.22;;;3.10;58.60;;;;;;5053324;28;20131;-66
2023/04/06 01:24:24;;;;;;;9.02;4.50;;;3.10;58.70;;;;;;5052650;28;20389;-66
2023/04/06 01:26:50;;;;;;;12.00;4.72;;;3.10;58.80;;;;;;5053503;28;20074;-66
2023/04/06 01:29:15;;;;;;;7.97;4.55;;;3.00;58.80;;;;;;5053140;28;20067;-67
2023/04/06 01:31:41;;;;;;;8.25;4.80;;;3.00;58.90;;;;;;5053463;28;20121;-66
2023/04/06 01:34:07;;;;;;;13.50;4.70;;;3.00;59.00;;;;;;5052893;28;20534;-66
2023/04/06 01:36:32;;;;;;;8.30;4.72;;;2.90;59.20;;;;;;5053783;28;20025;-66
2023/04/06 01:38:58;;;;;;;10.88;5.28;;;2.90;59.20;;;;;;5053014;28;20096;-66
2023/04/06 01:41:24;;;;;;;8.27;4.50;;;2.80;59.40;;;;;;5052869;28;20060;-66
2023/04/06 01:43:54;;;;;;;9.20;4.70;;;2.80;59.40;;;;;;5053281;28;20121;-67
2023/04/06 01:46:20;;;;;;;9.73;4.45;;;2.80;59.60;;;;;;5053140;28;20029;-67
2023/04/06 01:48:45;;;;;;;10.98;5.28;;;2.80;59.60;;;;;;5053653;28;20056;-66
2023/04/06 01:51:11;;;;;;;12.07;4.53;;;2.70;59.50;;;;;;5052925;28;20029;-67
2023/04/06 01:53:37;;;;;;;7.95;4.25;;;2.80;59.60;;;;;;5053338;28;20033;-66
2023/04/06 01:56:02;;;;;;;8.57;4.57;;;2.70;59.60;;;;;;5053232;28;20553;-66
2023/04/06 01:58:28;;;;;;;8.68;4.13;;;2.70;59.70;;;;;;5053218;28;20025;-66
2023/04/06 02:00:54;;;;;;;10.57;4.20;;;2.70;59.80;;;;;;5053190;28;20108;-66
2023/04/06 02:03:19;;;;;;;10.65;4.38;;;2.70;59.70;;;;;;5052572;28;20055;-67
2023/04/06 02:05:45;;;;;;;10.27;4.80;;;2.60;59.70;;;;;;5053015;28;20389;-66
2023/04/06 02:08:11;;;;;;;8.70;4.53;;;2.60;59.90;;;;;;5052744;28;20092;-66
2023/04/06 02:10:36;;;;;;;9.25;5.57;;;2.60;59.90;;;;;;5052917;28;20024;-67
2023/04/06 02:13:02;;;;;;;8.90;4.47;;;2.60;60.00;;;;;;5052767;28;20412;-67
2023/04/06 02:15:28;;;;;;;9.00;4.22;;;2.50;60.20;;;;;;5051310;28;20024;-67
2023/04/06 02:17:53;;;;;;;7.32;4.20;;;2.50;60.40;;;;;;5052911;28;20087;-67
2023/04/06 02:20:19;;;;;;;12.73;4.28;;;2.50;60.30;;;;;;5052452;28;20109;-67
2023/04/06 02:22:45;;;;;;;7.25;4.38;;;2.50;60.30;;;;;;5052904;28;20111;-67
2023/04/06 02:25:11;;;;;;;8.57;4.10;;;2.40;60.30;;;;;;5052295;28;20036;-67
2023/04/06 02:27:37;;;;;;;7.95;4.88;;;2.40;60.40;;;;;;5052450;28;20489;-67
2023/04/06 02:30:03;;;;;;;7.43;4.05;;;2.40;60.50;;;;;;5052946;28;20114;-67
2023/04/06 02:32:29;;;;;;;7.68;4.60;;;2.40;60.80;;;;;;5052433;28;20055;-67
2023/04/06 02:34:55;;;;;;;6.88;4.50;;;2.30;60.70;;;;;;5052863;28;20461;-67
2023/04/06 02:37:20;;;;;;;7.40;4.38;;;2.30;60.80;;;;;;5052391;28;20035;-67
2023/04/06 02:39:46;;;;;;;9.45;4.93;;;2.30;60.80;;;;;;5052633;28;20025;-66
2023/04/06 02:42:12;;;;;;;8.73;4.50;;;2.30;60.60;;;;;;5052027;28;20045;-66
2023/04/06 02:44:38;;;;;;;7.68;4.07;;;2.30;60.80;;;;;;5052279;28;20564;-66
2023/04/06 02:47:03;;;;;;;9.07;4.35;;;2.20;60.80;;;;;;5052514;28;20109;-67
2023/04/06 02:49:29;;;;;;;9.45;4.82;;;2.30;61.10;;;;;;5050918;28;20021;-67
2023/04/06 02:51:55;;;;;;;6.70;4.32;;;2.20;61.20;;;;;;5052365;28;20040;-66
2023/04/06 02:54:20;;;;;;;7.20;4.07;;;2.20;61.20;;;;;;5052168;28;20135;-67
2023/04/06 02:56:46;;;;;;;8.70;4.28;;;2.20;61.30;;;;;;5052202;28;20437;-67
2023/04/06 02:59:12;;;;;;;10.40;5.15;;;2.20;61.30;;;;;;5052131;28;20064;-65
2023/04/06 03:01:37;;;;;;;10.00;4.78;;;2.10;61.20;;;;;;5052390;28;20069;-67
2023/04/06 03:04:03;;;;;;;10.95;4.53;;;2.10;61.30;;;;;;5052652;28;20053;-65
2023/04/06 03:06:30;;;;;;;9.77;4.82;;;2.10;61.50;;;;;;5051997;28;20104;-67
2023/04/06 03:08:55;;;;;;;7.30;4.32;;;2.10;61.60;;;;;;5052342;28;20346;-66
2023/04/06 03:11:21;;;;;;;12.55;4.65;;;2.10;61.70;;;;;;5052184;28;20025;-67
2023/04/06 03:13:46;;;;;;;7.75;4.53;;;2.10;61.70;;;;;;5052337;28;20025;-66
2023/04/06 03:16:12;;;;;;;8.77;4.75;;;2.10;61.80;;;;;;5051736;28;20050;-66
2023/04/06 03:18:38;;;;;;;7.50;4.75;;;2.10;61.90;;;;;;5051703;28;20025;-65
2023/04/06 03:21:03;;;;;;;9.75;4.18;;;2.10;62.10;;;;;;5051960;28;20052;-66
2023/04/06 03:23:29;;;;;;;10.23;4.60;;;2.00;62.20;;;;;;5052060;28;20048;-65
2023/04/06 03:25:55;;;;;;;7.95;4.38;;;2.00;62.70;;;;;;5052433;28;20025;-65
2023/04/06 03:28:20;;;;;;;11.10;4.60;;;2.00;62.40;;;;;;5055329;28;20080;-67
2023/04/06 03:30:46;;;;;;;6.82;4.50;;;2.00;62.40;;;;;;5055695;28;20028;-67
2023/04/06 03:33:12;;;;;;;9.52;5.05;;;2.00;62.50;;;;;;5055279;28;20100;-68
2023/04/06 03:35:37;;;;;;;11.07;4.97;;;2.00;62.40;;;;;;5055749;28;20029;-67
2023/04/06 03:38:04;;;;;;;9.70;4.43;;;2.00;62.40;;;;;;5055027;28;20040;-67
2023/04/06 03:40:31;;;;;;;10.07;4.50;;;2.00;63.10;;;;;;5055204;28;20031;-67
2023/04/06 03:42:56;;;;;;;9.85;4.25;;;2.00;62.60;;;;;;5055517;28;20055;-66
2023/04/06 03:45:22;;;;;;;7.55;4.85;;;2.00;62.80;;;;;;5054735;28;20485;-67
2023/04/06 03:47:47;;;;;;;8.63;4.30;;;2.00;62.70;;;;;;5055207;28;20477;-67
2023/04/06 03:50:13;;;;;;;8.90;4.38;;;2.00;62.50;;;;;;5055078;28;20057;-67
2023/04/06 03:52:39;;;;;;;10.48;4.45;;;2.00;62.50;;;;;;5055380;28;20029;-67
2023/04/06 03:55:05;;;;;;;11.07;4.80;;;2.00;62.40;;;;;;5055286;28;20354;-67
2023/04/06 03:57:31;;;;;;;8.38;4.57;;;2.00;62.30;;;;;;5054962;28;20029;-68
2023/04/06 03:59:56;;;;;;;8.98;4.30;;;2.00;62.40;;;;;;5055178;28;20469;-69
2023/04/06 04:02:22;;;;;;;9.40;4.60;;;2.00;62.40;;;;;;5054752;28;20036;-67
2023/04/06 04:04:47;;;;;;;13.18;4.45;;;2.00;62.40;;;;;;5055117;28;20029;-67
2023/04/06 04:07:13;;;;;;;8.57;4.70;;;2.00;62.40;;;;;;5054623;28;20025;-72
2023/04/06 04:09:39;;;;;;;8.45;4.40;;;2.00;62.60;;;;;;5054825;28;20028;-67
2023/04/06 04:12:05;;;;;;;7.93;4.63;;;2.00;62.60;;;;;;5054718;28;20025;-66
2023/04/06 04:14:30;;;;;;;6.45;4.53;;;2.00;62.80;;;;;;5053309;28;20025;-67
2023/04/06 04:16:56;;;;;;;8.98;4.68;;;1.90;62.60;;;;;;5054883;28;20033;-67
2023/04/06 04:19:21;;;;;;;9.50;5.28;;;1.90;62.70;;;;;;5054794;28;20035;-67
2023/04/06 04:21:47;;;;;;;8.32;4.93;;;1.90;63.00;;;;;;5054575;28;20064;-67
2023/04/06 04:24:13;;;;;;;11.38;5.07;;;1.90;63.20;;;;;;5054710;28;20029;-66
2023/04/06 04:26:40;;;;;;;9.30;4.72;;;1.90;63.30;;;;;;5054279;28;20100;-67
2023/04/06 04:29:06;;;;;;;9.43;5.03;;;1.90;63.30;;;;;;5054603;28;20029;-66
2023/04/06 04:31:32;;;;;;;10.55;4.95;;;1.90;63.40;;;;;;5053982;28;20056;-66
2023/04/06 04:33:59;;;;;;;10.57;5.45;;;1.90;63.50;;;;;;5054319;28;20059;-66
2023/04/06 04:36:25;;;;;;;7.45;4.88;;;1.90;63.80;;;;;;5054136;28;20029;-66
2023/04/06 04:38:51;;;;;;;7.88;4.70;;;1.90;63.90;;;;;;5053579;28;20123;-66
2023/04/06 04:41:17;;;;;;;8.60;5.00;;;1.90;63.90;;;;;;5053639;28;20100;-66
2023/04/06 04:43:42;;;;;;;10.88;5.15;;;1.90;63.80;;;;;;5053994;28;20053;-66
2023/04/06 04:46:08;;;;;;;8.65;5.13;;;1.90;64.00;;;;;;5054410;28;20064;-67
2023/04/06 04:48:34;;;;;;;10.38;6.07;;;1.90;64.00;;;;;;5053794;28;20029;-67
2023/04/06 04:51:00;;;;;;;8.18;5.43;;;2.00;64.10;;;;;;5054359;28;20063;-67
2023/04/06 04:53:25;;;;;;;10.40;5.15;;;2.00;64.20;;;;;;5053789;28;20035;-67
2023/04/06 04:55:51;;;;;;;8.95;4.93;;;2.00;64.20;;;;;;5053836;28;20036;-67
2023/04/06 04:58:18;;;;;;;9.40;5.32;;;2.00;64.20;;;;;;5053936;28;20385;-73
2023/04/06 05:00:44;;;;;;;10.02;5.43;;;2.00;64.10;;;;;;5054223;28;20029;-67
2023/04/06 05:03:18;;;;;;;11.10;5.30;;;2.00;64.20;;;;;;5053933;28;20037;-67
2023/04/06 05:05:43;;;;;;;11.38;5.22;;;2.00;64.00;;;;;;5054174;28;20428;-66
2023/04/06 05:08:09;;;;;;;9.52;5.18;;;2.10;64.00;;;;;;5054238;28;20025;-66
2023/04/06 05:10:35;;;;;;;9.95;5.40;;;2.10;64.10;;;;;;5053473;28;20025;-66
2023/04/06 05:13:00;;;;;;;11.10;5.70;;;2.10;64.10;;;;;;5053528;28;20039;-66
2023/04/06 05:15:26;;;;;;;17.63;6.13;;;2.10;64.10;;;;;;5053676;28;20454;-66
2023/04/06 05:17:52;;;;;;;8.85;5.10;;;2.10;64.30;;;;;;5053478;28;20025;-66
2023/04/06 05:20:18;;;;;;;10.55;5.57;;;2.10;64.30;;;;;;5053339;28;20056;-66
2023/04/06 05:22:43;;;;;;;9.07;5.38;;;2.20;64.60;;;;;;5052587;28;20132;-67
2023/04/06 05:25:09;;;;;;;12.68;5.90;;;2.10;64.70;;;;;;5053336;28;20021;-66
2023/04/06 05:27:35;;;;;;;10.57;5.47;;;2.20;64.80;;;;;;5052700;28;20021;-66
2023/04/06 05:30:01;;;;;;;13.73;5.63;;;2.20;64.70;;;;;;5053417;28;20065;-66
2023/04/06 05:32:27;;;;;;;15.98;5.97;;;2.20;64.80;;;;;;5051672;28;20036;-66
2023/04/06 05:34:53;;;;;;;9.73;5.65;;;2.30;64.80;;;;;;5054057;28;20031;-66
2023/04/06 05:37:19;;;;;;;13.52;5.85;;;2.40;65.40;;;;;;5053811;28;20446;-66
2023/04/06 05:39:45;;;;;;;11.40;5.63;;;2.40;64.70;;;;;;5053847;28;20025;-66
2023/04/06 05:42:11;;;;;;;11.85;6.32;;;2.50;64.70;;;;;;5053510;28;20141;-66
2023/04/06 05:44:37;;;;;;;10.13;5.90;;;2.50;64.50;;;;;;5052514;28;20402;-67
2023/04/06 05:47:03;;;;;;;13.85;6.90;;;2.50;64.30;;;;;;5053413;28;20025;-66
2023/04/06 05:49:29;;;;;;;17.92;6.57;;;2.60;64.30;;;;;;5052775;28;20021;-67
2023/04/06 05:51:55;;;;;;;12.23;6.65;;;2.70;64.10;;;;;;5053169;28;20060;-67
2023/04/06 05:54:20;;;;;;;14.18;6.65;;;2.70;63.80;;;;;;5052843;28;20036;-73
2023/04/06 05:56:46;;;;;;;12.80;6.68;;;2.80;63.50;;;;;;5053043;28;20075;-66
2023/04/06 05:59:12;;;;;;;13.60;5.72;;;2.90;63.20;;;;;;5052812;28;20025;-66
2023/04/06 06:01:37;;;;;;;8.98;5.78;;;3.00;63.20;;;;;;5052301;28;20043;-66
2023/04/06 06:04:03;;;;;;;8.70;6.32;;;3.00;62.70;;;;;;5053412;28;20029;-67
2023/04/06 06:06:30;;;;;;;12.70;6.82;;;3.10;62.40;;;;;;5052793;28;20029;-67
2023/04/06 06:08:58;;;;;;;13.35;5.80;;;3.20;62.50;;;;;;5051687;28;20373;-67
2023/04/06 06:11:24;;;;;;;10.82;6.43;;;3.20;62.50;;;;;;5052536;28;20079;-67
2023/04/06 06:13:50;;;;;;;9.40;5.68;;;3.30;62.00;;;;;;5052951;28;20037;-67
2023/04/06 06:16:18;;;;;;;10.75;6.20;;;3.40;62.00;;;;;;5051565;28;20152;-67
2023/04/06 06:18:43;;;;;;;9.85;6.18;;;3.50;62.00;;;;;;5052388;28;20044;-65
2023/04/06 06:21:09;;;;;;;12.70;6.05;;;3.60;61.70;;;;;;5052387;28;20029;-65
2023/04/06 06:23:35;;;;;;;11.15;5.80;;;3.70;61.70;;;;;;5052181;28;20047;-67
2023/04/06 06:26:01;;;;;;;9.65;5.95;;;3.80;61.60;;;;;;5052294;28;20031;-65
2023/04/06 06:28:26;;;;;;;11.52;6.10;;;3.90;61.10;;;;;;5052312;28;20057;-68
2023/04/06 06:30:52;;;;;;;8.25;5.80;;;4.10;60.90;;;;;;5052638;28;20021;-66
2023/04/06 06:33:18;;;;;;;11.35;5.35;;;4.20;60.90;;;;;;5052292;28;20083;-66
2023/04/06 06:35:43;;;;;;;12.95;6.07;;;4.40;60.60;;;;;;5052229;28;20035;-67
2023/04/06 06:38:09;;;;;;;12.18;5.88;;;4.70;59.90;;;;;;5052669;28;20355;-67
2023/04/06 06:40:35;;;;;;;10.45;6.00;;;4.90;58.60;;;;;;5052134;28;20036;-67
2023/04/06 06:43:00;;;;;;;12.52;6.00;;;5.20;57.90;;;;;;5051958;28;20047;-66
2023/04/06 06:45:26;;;;;;;14.18;5.90;;;5.50;57.60;;;;;;5051921;28;20117;-66
2023/04/06 06:47:51;;;;;;;11.38;6.28;;;5.70;56.60;;;;;;5052676;28;20028;-66
2023/04/06 06:50:17;;;;;;;11.18;5.95;;;6.10;56.00;;;;;;5052528;28;20028;-66
2023/04/06 06:52:43;;;;;;;8.95;5.50;;;6.30;55.80;;;;;;5052074;28;20029;-67
2023/04/06 06:55:10;;;;;;;15.52;6.28;;;6.70;55.10;;;;;;5052427;28;20075;-67
2023/04/06 06:57:36;;;;;;;8.95;5.72;;;7.00;54.40;;;;;;5052073;28;20029;-66
2023/04/06 07:00:05;;;;;;;14.30;5.80;;;7.30;52.90;;;;;;5052422;28;20099;-66
2023/04/06 07:02:30;;;;;;;10.32;5.53;;;7.60;52.90;;;;;;5054745;28;20457;-66
2023/04/06 07:04:56;;;;;;;10.57;5.55;;;8.00;51.70;;;;;;5056252;28;20029;-67
2023/04/06 07:07:22;;;;;;;11.20;5.60;;;8.40;50.90;;;;;;5056117;28;20063;-66
2023/04/06 07:09:47;;;;;;;11.07;5.35;;;8.90;49.70;;;;;;5055407;28;20028;-66
2023/04/06 07:12:13;;;;;;;13.88;5.30;;;9.40;48.30;;;;;;5056103;28;20032;-66
2023/04/06 07:14:39;;;;;;;9.95;5.78;;;10.00;47.40;;;;;;5055501;28;20458;-67
2023/04/06 07:17:04;;;;;;;8.57;5.63;;;10.60;46.40;;;;;;5054632;28;20059;-67
2023/04/06 07:19:30;;;;;;;7.50;4.70;;;11.30;44.90;;;;;;5055400;28;20024;-67
2023/04/06 07:21:56;;;;;;;13.75;6.15;;;11.80;43.20;;;;;;5055857;28;20041;-67
2023/04/06 07:24:21;;;;;;;11.25;5.47;;;12.20;42.40;;;;;;5055396;28;20037;-67
2023/04/06 07:26:47;;;;;;;13.32;5.90;;;12.60;42.10;;;;;;5055398;28;20108;-67
2023/04/06 07:29:13;;;;;;;8.35;5.13;;;13.00;41.30;;;;;;5055820;28;20031;-66
2023/04/06 07:31:38;;;;;;;8.32;5.47;;;13.30;40.30;;;;;;5055700;28;20470;-66
2023/04/06 07:34:04;;;;;;;8.85;5.00;;;13.70;40.60;;;;;;5055402;28;20462;-67
2023/04/06 07:36:29;;;;;;;8.50;5.18;;;14.10;40.30;;;;;;5055225;28;20025;-67
2023/04/06 07:38:55;;;;;;;8.68;4.78;;;14.70;39.10;;;;;;5055591;28;20029;-67
2023/04/06 07:41:21;;;;;;;9.43;5.50;;;15.40;37.90;;;;;;5055534;28;20029;-67
2023/04/06 07:43:46;;;;;;;8.70;4.47;;;16.20;37.00;;;;;;5054965;28;20118;-65
2023/04/06 07:46:12;;;;;;;9.27;4.78;;;16.80;34.90;;;;;;5055276;28;20033;-66
2023/04/06 07:48:38;;;;;;;8.63;4.88;;;17.30;34.40;;;;;;5054683;28;20028;-67
2023/04/06 07:51:06;;;;;;;9.38;4.78;;;17.70;33.80;;;;;;5055149;28;20091;-66
2023/04/06 07:53:31;;;;;;;10.98;4.47;;;18.10;33.10;;;;;;5054818;28;20037;-66
2023/04/06 07:55:58;;;;;;;10.32;4.63;;;18.40;31.90;;;;;;5055480;28;20109;-67
2023/04/06 07:58:24;;;;;;;7.53;4.43;;;18.40;31.00;;;;;;5055533;28;20123;-67
2023/04/06 08:00:49;;;;;;;5.28;3.40;;;18.50;31.30;;;;;;5055046;28;20488;-67
2023/04/06 08:03:16;;;;;;;5.40;3.58;;;18.60;30.00;;;;;;5055326;28;20040;-67
2023/04/06 08:05:42;;;;;;;6.57;3.70;;;18.70;30.50;;;;;;5054521;28;20516;-66
2023/04/06 08:08:08;;;;;;;9.27;6.00;;;19.00;29.90;;;;;;5054891;28;20025;-67
2023/04/06 08:10:34;;;;;;;10.15;4.68;;;19.30;29.80;;;;;;5054594;28;20124;-67
2023/04/06 08:13:00;;;;;;;5.28;3.38;;;19.70;29.60;;;;;;5053639;28;20424;-67
2023/04/06 08:15:26;;;;;;;6.45;3.08;;;19.90;28.50;;;;;;5054967;28;20029;-67
2023/04/06 08:17:51;;;;;;;7.72;3.55;;;19.40;29.40;;;;;;5054374;28;20068;-67
2023/04/06 08:20:17;;;;;;;5.88;3.17;;;19.50;28.10;;;;;;5054773;28;20042;-66
2023/04/06 08:22:49;;;;;;;3.78;2.92;;;19.80;28.20;;;;;;5053953;28;20500;-67
2023/04/06 08:25:14;;;;;;;5.75;3.15;;;20.20;27.60;;;;;;5054302;28;20029;-66
2023/04/06 08:27:40;;;;;;;12.30;3.53;;;20.40;27.30;;;;;;5054383;28;20048;-66
2023/04/06 08:30:06;;;;;;;7.18;3.38;;;20.40;26.90;;;;;;5054619;28;20116;-67
2023/04/06 08:32:32;;;;;;;9.35;3.08;;;20.00;27.40;;;;;;5054159;28;20036;-73
2023/04/06 08:34:57;;;;;;;5.28;3.40;;;20.20;27.60;;;;;;5054739;28;20025;-65
2023/04/06 08:37:23;;;;;;;5.47;3.35;;;20.00;27.50;;;;;;5054505;28;20029;-66
2023/04/06 08:39:49;;;;;;;4.25;3.55;;;19.80;27.80;;;;;;5054204;28;20021;-65
2023/04/06 08:42:24;;;;;;;6.32;3.22;;;19.30;28.70;;;;;;5054040;28;20083;-65
2023/04/06 08:44:52;;;;;;;5.15;3.25;;;19.20;28.70;;;;;;5054160;28;20048;-67
2023/04/06 08:47:18;;;;;;;5.88;3.28;;;18.70;28.30;;;;;;5054011;28;20454;-67
2023/04/06 08:49:44;;;;;;;10.73;3.60;;;17.50;29.40;;;;;;5053566;28;20039;-67
2023/04/06 08:52:10;;;;;;;6.32;2.92;;;16.90;30.30;;;;;;5054380;28;20033;-66
2023/04/06 08:54:37;;;;;;;7.22;3.30;;;16.30;31.20;;;;;;5053778;28;20128;-66
2023/04/06 08:57:04;;;;;;;7.20;3.22;;;15.90;32.30;;;;;;5054157;28;20033;-66
2023/04/06 08:59:31;;;;;;;5.20;3.70;;;15.40;32.00;;;;;;5054071;28;20129;-65
2023/04/06 09:01:57;;;;;;;6.63;3.28;;;14.90;33.20;;;;;;5053561;28;20090;-67
2023/04/06 09:04:23;;;;;;;7.38;3.00;;;14.70;33.70;;;;;;5054285;28;20431;-67
2023/04/06 09:06:49;;;;;;;9.15;3.92;;;14.50;34.30;;;;;;5053447;28;20059;-66
2023/04/06 09:09:15;;;;;;;5.65;3.53;;;14.20;35.00;;;;;;5053852;28;20108;-67
2023/04/06 09:11:48;;;;;;;5.82;3.67;;;13.90;35.30;;;;;;5053445;28;20064;-67
2023/04/06 09:14:14;;;;;;;5.95;3.58;;;13.60;35.70;;;;;;5053268;28;20051;-66
2023/04/06 09:16:42;;;;;;;8.88;3.20;;;13.50;35.80;;;;;;5053279;28;20029;-68
2023/04/06 09:19:09;;;;;;;6.38;3.72;;;13.30;36.50;;;;;;5053797;28;20473;-67
2023/04/06 09:21:35;;;;;;;8.00;3.80;;;13.10;37.20;;;;;;5053138;28;20068;-66
2023/04/06 09:24:02;;;;;;;8.93;3.72;;;13.00;38.60;;;;;;5053126;28;20033;-66
2023/04/06 09:26:29;;;;;;;8.10;3.40;;;13.00;37.70;;;;;;5053524;28;20021;-67
2023/04/06 09:28:56;;;;;;;4.32;3.17;;;12.90;38.10;;;;;;5052952;28;20029;-67
2023/04/06 09:31:23;;;;;;;4.18;2.75;;;12.90;37.70;;;;;;5053190;28;20378;-67
2023/04/06 09:33:49;;;;;;;5.30;3.22;;;12.90;38.00;;;;;;5053034;28;20119;-66
2023/04/06 09:36:15;;;;;;;4.32;2.40;;;12.80;37.70;;;;;;5053444;28;20103;-67
2023/04/06 09:39:03;;;;;;;3.33;2.80;;;12.90;36.60;;;;;;5052959;28;20115;-67
2023/04/06 09:41:36;;;;;;;5.88;2.90;;;12.80;36.50;;;;;;5053329;28;20539;-66
2023/04/06 09:44:12;;;;;;;4.70;2.65;;;12.80;36.90;;;;;;5052858;28;20095;-68
2023/04/06 09:46:42;;;;;;;5.40;2.72;;;12.80;37.20;;;;;;5052992;28;20028;-71
2023/04/06 09:49:08;;;;;;;7.43;3.00;;;12.90;37.30;;;;;;5052985;28;20029;-66
2023/04/06 09:51:38;;;;;;;5.32;2.88;;;12.80;36.70;;;;;;5052890;28;20095;-66
2023/04/06 09:54:05;;;;;;;7.00;2.80;;;12.50;36.80;;;;;;5053051;28;20112;-67
2023/04/06 09:56:38;;;;;;;4.25;2.50;;;12.30;37.10;;;;;;5053187;28;20037;-67
2023/04/06 09:59:10;;;;;;;5.20;2.88;;;12.10;37.50;;;;;;5053388;28;20029;-67
2023/04/06 10:01:37;;;;;;;4.03;2.50;;;11.90;37.50;;;;;;5051902;28;20032;-67
2023/04/06 10:04:15;;;;;;;4.22;2.83;;;11.70;38.00;;;;;;5052894;28;20029;-67
2023/04/06 10:06:41;;;;;;;4.47;2.67;;;11.70;38.30;;;;;;5052546;28;20025;-66
2023/04/06 10:09:08;;;;;;;5.30;2.30;;;11.70;38.40;;;;;;5052993;28;20032;-66
2023/04/06 10:11:34;;;;;;;3.03;2.15;;;11.50;37.60;;;;;;5052779;28;20032;-68
2023/04/06 10:14:01;;;;;;;7.05;2.50;;;11.40;38.40;;;;;;5053114;28;20346;-66
2023/04/06 10:16:29;;;;;;;2.40;1.88;;;11.40;37.50;;;;;;5053012;28;20036;-66
2023/04/06 10:19:01;;;;;;;2.90;2.10;;;11.50;36.90;;;;;;5052167;28;20017;-66
2023/04/06 10:21:29;;;;;;;5.63;2.33;;;11.60;37.50;;;;;;5052423;28;20029;-67
2023/04/06 10:23:59;;;;;;;2.83;2.08;;;11.70;35.80;;;;;;5052311;28;20036;-67
2023/04/06 10:26:25;;;;;;;2.33;2.00;;;11.70;35.60;;;;;;5052913;28;20028;-68
2023/04/06 10:28:51;;;;;;;7.03;2.20;;;11.60;35.30;;;;;;5052332;28;20259;-66
2023/04/06 10:31:25;;;;;;;4.13;2.33;;;11.60;36.00;;;;;;5052720;28;20470;-66
2023/04/06 10:33:58;;;;;;;5.57;2.35;;;11.50;35.80;;;;;;5052255;28;20032;-66
2023/04/06 10:36:27;;;;;;;3.70;2.58;;;11.50;36.10;;;;;;5053756;28;20461;-67
2023/04/06 10:38:58;;;;;;;4.78;2.20;;;11.60;36.40;;;;;;5056111;28;20025;-67
2023/04/06 10:41:31;;;;;;;5.15;2.53;;;11.60;36.00;;;;;;5056631;28;20025;-67
2023/04/06 10:43:57;;;;;;;4.43;3.25;;;11.50;35.60;;;;;;5056352;28;20450;-66
2023/04/06 10:46:27;;;;;;;3.42;2.30;;;11.50;36.30;;;;;;5056597;28;20029;-67
2023/04/06 10:48:53;;;;;;;7.40;2.70;;;11.50;35.80;;;;;;5056157;28;20040;-67
2023/04/06 10:51:23;;;;;;;8.70;2.90;;;11.50;36.00;;;;;;5056515;28;20358;-66
2023/04/06 10:53:50;;;;;;;3.40;2.58;;;11.40;36.50;;;;;;5056428;28;20028;-67
2023/04/06 10:56:17;;;;;;;5.25;2.85;;;11.40;36.50;;;;;;5055168;28;20519;-66
2023/04/06 10:58:47;;;;;;;5.90;2.75;;;11.30;36.90;;;;;;5056405;28;20025;-73
2023/04/06 11:01:19;;;;;;;7.27;3.00;;;11.40;36.90;;;;;;5056204;28;20029;-67
2023/04/06 11:03:46;;;;;;;7.20;2.80;;;11.40;36.90;;;;;;5055820;28;20025;-67
2023/04/06 11:06:26;;;;;;;4.20;3.08;;;11.50;36.30;;;;;;5056217;28;20036;-67
2023/04/06 11:08:53;;;;;;;3.15;2.30;;;11.50;36.10;;;;;;5055817;28;20071;-67
2023/04/06 11:11:21;;;;;;;3.55;2.42;;;11.50;36.10;;;;;;5056079;28;20532;-66
2023/04/06 11:13:51;;;;;;;6.40;2.60;;;11.60;37.20;;;;;;5055379;28;20508;-67
2023/04/06 11:16:27;;;;;;;5.03;2.67;;;11.70;36.60;;;;;;5055966;28;20092;-67
2023/04/06 11:19:01;;;;;;;7.22;2.65;;;11.80;35.90;;;;;;5055638;28;20025;-67
2023/04/06 11:21:36;;;;;;;4.50;2.25;;;11.80;36.20;;;;;;5056012;28;20075;-67
2023/04/06 11:24:12;;;;;;;5.13;2.60;;;11.80;36.00;;;;;;5054963;28;20033;-66
2023/04/06 11:26:50;;;;;;;4.65;2.20;;;11.90;36.00;;;;;;5055664;28;20029;-66
2023/04/06 11:29:18;;;;;;;5.90;2.58;;;11.90;35.70;;;;;;5055757;28;20033;-66
2023/04/06 11:32:20;;;;;;;4.15;2.42;;;11.90;35.30;;;;;;5055678;28;20422;-66
2023/04/06 11:34:47;;;;;;;5.85;2.80;;;11.80;35.80;;;;;;5051590;28;20432;-71
2023/04/06 11:37:12;;;;;;;5.38;2.65;;;11.50;35.80;;;;;;5055294;28;20028;-66
2023/04/06 11:39:50;;;;;;;9.30;2.40;;;11.50;36.10;;;;;;5055494;28;20029;-66
2023/04/06 11:42:26;;;;;;;3.63;2.45;;;11.50;37.70;;;;;;5055439;28;20075;-67
2023/04/06 11:44:55;;;;;;;7.32;2.13;;;11.70;37.10;;;;;;5054659;28;20045;-66
2023/04/06 11:47:32;;;;;;;6.07;2.10;;;11.60;35.90;;;;;;5055243;28;20029;-66
2023/04/06 11:50:10;;;;;;;2.70;2.20;;;11.70;36.00;;;;;;5055163;28;20454;-66
2023/04/06 11:52:36;;;;;;;3.33;2.05;;;11.70;37.20;;;;;;5055236;28;20523;-66
2023/04/06 11:55:13;;;;;;;4.47;2.15;;;11.80;36.80;;;;;;5055159;28;20028;-66
2023/04/06 11:57:39;;;;;;;3.08;2.20;;;11.90;35.90;;;;;;5055285;28;20032;-66
2023/04/06 12:00:07;;;;;;;7.47;2.17;;;11.90;35.90;;;;;;5054825;28;20448;-67
2023/04/06 12:02:32;;;;;;;7.90;2.70;;;11.90;35.80;;;;;;5054936;28;20037;-66
2023/04/06 12:04:58;;;;;;;9.55;2.80;;;12.00;35.20;;;;;;5054673;28;20473;-67
2023/04/06 12:07:24;;;;;;;2.88;1.88;;;12.00;35.60;;;;;;5055092;28;20104;-67
2023/04/06 12:09:49;;;;;;;3.30;2.00;;;12.10;35.50;;;;;;5054684;28;20075;-67
2023/04/06 12:12:15;;;;;;;4.28;2.40;;;12.10;34.20;;;;;;5054537;28;20048;-67
2023/04/06 12:14:41;;;;;;;6.43;1.92;;;12.10;34.40;;;;;;5053307;28;20044;-66
2023/04/06 12:17:06;;;;;;;2.38;2.08;;;12.10;35.40;;;;;;5054350;28;20036;-66
2023/04/06 12:19:32;;;;;;;4.75;2.00;;;12.10;34.30;;;;;;5054532;28;20040;-65
2023/04/06 12:21:58;;;;;;;3.65;2.13;;;12.10;34.30;;;;;;5054256;28;20044;-67
2023/04/06 12:24:23;;;;;;;3.92;2.03;;;12.00;34.40;;;;;;5054852;28;20028;-67
2023/04/06 12:26:49;;;;;;;3.42;2.25;;;12.00;34.70;;;;;;5054299;28;20485;-74
2023/04/06 12:29:15;;;;;;;5.93;2.28;;;11.90;34.70;;;;;;5054313;28;20032;-67
2023/04/06 12:31:42;;;;;;;5.07;1.88;;;11.90;34.80;;;;;;5054545;28;20037;-66
2023/04/06 12:34:08;;;;;;;3.30;2.10;;;12.00;34.90;;;;;;5052749;28;20028;-67
2023/04/06 12:36:34;;;;;;;3.17;1.92;;;11.90;34.60;;;;;;5054316;28;20036;-66
2023/04/06 12:39:00;;;;;;;6.50;2.15;;;12.00;34.70;;;;;;5053836;28;20032;-66
2023/04/06 12:41:27;;;;;;;3.65;2.30;;;11.90;34.80;;;;;;5054117;28;20474;-66
2023/04/06 12:43:53;;;;;;;3.47;2.08;;;12.00;35.30;;;;;;5053356;28;20049;-66
2023/04/06 12:46:18;;;;;;;3.45;2.47;;;11.90;35.70;;;;;;5054143;28;20021;-65
2023/04/06 12:48:44;;;;;;;7.93;1.80;;;11.90;35.20;;;;;;5053905;28;20025;-67